Hialeah, FL (33010)

2:34 AM EDT on May 24, 2017 (GMT -0400)
Miami Springs | | Change Station

Elev 26 ft 25.83 °N, 80.29 °W | Updated 4 minutes ago

Overcast
Overcast
80.2 °F
Feels Like 85 °F
N
0.5
Wind Variable Wind from SE

Today
High -- | Low -- °F
--% Chance of Precip.
Yesterday
High -- | Low -- °F
Precip. -- in
Pressure 29.91 in
Visibility 10.0 miles
Clouds Few 3000 ft
Mostly Cloudy 4500 ft
Overcast 6000 ft
Heat Index 85 °F
Dew Point 74 °F
Humidity 82%
Rainfall 0.00 in
Snow Depth Not available.
6:31 AM 8:04 PM
Waning Crescent, 4% visible
METAR KMIA 240553Z 16008KT 10SM FEW030 BKN045 OVC060 27/23 A2991 RMK AO2 RAB37E52 SLP128 P0004 60004 T02720233 10283 20272 58007
Pressure 29.91 in
Visibility 10.0 miles
Clouds Few 3000 ft
Mostly Cloudy 4500 ft
Overcast 6000 ft
Heat Index 85 °F
Dew Point 74 °F
Humidity 82%
Rainfall 0.00 in
Snow Depth Not available.
6:31 AM 8:04 PM
Waning Crescent, 4% visible
METAR KMIA 240553Z 16008KT 10SM FEW030 BKN045 OVC060 27/23 A2991 RMK AO2 RAB37E52 SLP128 P0004 60004 T02720233 10283 20272 58007

Get Severe Weather Alerts

Thanks for signing up!

Be on the lookout for a verification email in your inbox.

You'll start receiving the daily forecast at 6 AM.

×

10-Day Weather Forecast

Almanac

Astronomy

May. 24, 2017 Rise Set
Actual Time
Civil Twilight
Nautical Twilight
Astronomical Twilight
Moon
Length of Visible Light
Length of Day
Tomorrow will be .
, % of the Moon is Illuminated

Today's Extremes

State Highs State Lows

Community

WunderPhotos

Category 6

Welcome to Category 6. This is the collective home for Weather Underground's featured writeups by Dr. Jeff Masters (right), Bob Henson (left), Chris Burt, and other regular contributors.

Nearby

Air Quality

  Air Quality AQ Index Pollutant
Not available.

Snow Depth

Station Depth Elevation

Earthquake Activity

City Distance Mag. Time & Date
Minimum magnitude displayed is 2.5.

Coastal Water Temperatures

Place Temperature

Stations

Nearby Weather Stations

Station Location Temp. Windchill Dew Point Humidity Wind Precip. Elev Updated Type
                   

Watches & Warnings

There are currently no watches in effect.